METAR AND TAF INFORMATION
METAR FOR UATE
ADDS - METARS form results

(0416 UTC 26 August 2019)
Data provider http://aviationweather.gov/metar/data/
 
METAR text: UATE 260400Z 05005MPS 020V080 9999 SCT060CB 26/15 Q1014 WS R30 R30/0///70 NOSIG RMK QFE759/1012
Conditions at: UATE (AKTAU KAZAKHSTAN, KZ) observed 0400 UTC 26 August 2019
Temperature: 26.0°C (79°F)
Dewpoint: 15.0°C (59°F) [RH = 51%]
Pressure (altimeter): 29.94 inches Hg (1014.0 mb)
Winds: from the NE (50 degrees) at 12 MPH (10 knots; 5.1 m/s)
Visibility: 6 or more miles (10+ km)
Ceiling: at least 12,000 feet AGL
Clouds: scattered clouds at 6000 feet AGL
Weather: no significant weather observed at this time

METAR text: UATE 260330Z 05004MPS 9999 SCT060CB 26/14 Q1015 WS R30 R30/0///70 NOSIG RMK QFE759/1013
Conditions at: UATE (AKTAU KAZAKHSTAN, KZ) observed 0330 UTC 26 August 2019
Temperature: 26.0°C (79°F)
Dewpoint: 14.0°C (57°F) [RH = 48%]
Pressure (altimeter): 29.97 inches Hg (1015.0 mb)
Winds: from the NE (50 degrees) at 9 MPH (8 knots; 4.1 m/s)
Visibility: 6 or more miles (10+ km)
Ceiling: at least 12,000 feet AGL
Clouds: scattered clouds at 6000 feet AGL
Weather: no significant weather observed at this time

Forecast for: UATE (AKTAU KAZAKHSTAN, KZ)
Text: TAF UATE 252331Z 2600/2624 06008MPS 9999 SCT040CB TX33/2610Z TN20/2601Z
Forecast period: 0000 to 0900 UTC 26 August 2019
Forecast type: FROM: standard forecast or significant change
Winds: from the ENE (60 degrees) at 18 MPH (16 knots; 8.2 m/s)
Visibility: 6 or more miles 10+ km)
Ceiling: at least 12,000 feet AGL
Clouds: scattered clouds at 4000 feet AGL
Weather: no significant weather forecast for this period
Text: BECMG 2609/2611 36012G18MPS
Forecast period: 0900 UTC 26 August 2019 to 0000 UTC 27 August 2019
Forecast type: BECOMING: Conditions expected to become as follows by 1100 UTC 26 August 2019
Winds: from the N (360 degrees) at 26 MPH (23 knots; 11.8 m/s)
gusting to 40 MPH (35 knots; 18.0 m/s)
Visibility: 6 or more miles 10+ km)
Ceiling: at least 12,000 feet AGL
Clouds: scattered clouds at 4000 feet AGL
Weather: no significant weather forecast for this period

 AIRPORT MAP

 RUNWAY INFORMATION

 AIRPORT FREQUENCIES
Type A/G Name RDO Frequency 895.1 MHZ
Type APP Name APP Frequency 124.2 MHZ
Type TWR Name TWR Frequency 120.7 MHZ

 AIRPORT NEAR NAVIGATION AIDS
Type VOR-DME Name Aktau Frequency 113300 KHZ
Type NDB Name Aktau Frequency 670 KHZ
Type NDB Name Aktau Frequency 670 KHZ



2018 Air Astana Virtual Airline